PWSweather.com
Personal Weather Stations
Station Observations
WISCHPK61
Green Bay Schmitt Park, Green Bay, WI 54311

Green Bay Schmitt ParkGreen Bay, WI 54311

Lat: 44.514277, Lon: -87.935067

Elevation: 735

Station Type: Acu Rite Pro Weather Center model 02032C

http://greenbayweathercam.com

High Low Average
Temperature 33.1°F0.6°C 16.9°F-8.4°C 24.2°F-4.3°C
Dew Point 32.9°F0.5°C 16.4°F-8.7°C 23.8°F-4.6°C
Winds Calm Calm Calm Calm Calm SCalm S
Wind Gusts -- -- --
Humidity 99% 95% 98%
Pressure 29.30 in992.2 mb 28.81 in975.6 mb -
Precipitation 0.00 in0.0 mm - -
Hour Temp Dew Point Humidity Winds Wind Gusts Pressure Precip Precip Rate Daily Precip Total
12:00 AM 26.8°F-2.9°C 26.3°F-3.2°C 98% Calm Calm -- 29.30 in992.2 mb - 0.00 in0.0 mm 0.00 in0.0 mm
01:00 AM 26.8°F-2.9°C 26.3°F-3.2°C 98% Calm Calm -- 29.30 in992.2 mb - 0.00 in0.0 mm 0.00 in0.0 mm
02:00 AM 26.6°F-3.0°C 26.4°F-3.1°C 99% Calm Calm -- 29.25 in990.5 mb - 0.00 in0.0 mm 0.00 in0.0 mm
03:00 AM 26.2°F-3.2°C 26.0°F-3.3°C 99% Calm Calm -- 29.18 in988.1 mb - 0.00 in0.0 mm 0.00 in0.0 mm
04:00 AM 26.2°F-3.2°C 25.7°F-3.5°C 98% Calm Calm -- 29.13 in986.5 mb - 0.00 in0.0 mm 0.00 in0.0 mm
05:00 AM 26.1°F-3.3°C 25.9°F-3.4°C 99% Calm Calm -- 29.10 in985.4 mb - 0.00 in0.0 mm 0.00 in0.0 mm
06:00 AM 25.8°F-3.4°C 25.6°F-3.6°C 99% Calm Calm -- 29.09 in985.1 mb - 0.00 in0.0 mm 0.00 in0.0 mm
07:00 AM 25.2°F-3.8°C 24.7°F-4.1°C 98% Calm Calm -- 29.03 in983.1 mb - 0.00 in0.0 mm 0.00 in0.0 mm
08:00 AM 25.2°F-3.8°C 25.0°F-3.9°C 99% Calm Calm -- 29.01 in982.4 mb - 0.00 in0.0 mm 0.00 in0.0 mm
09:00 AM 26.8°F-2.9°C 26.6°F-3.0°C 99% Calm Calm -- 28.96 in980.7 mb - 0.00 in0.0 mm 0.00 in0.0 mm
10:00 AM 29.1°F-1.6°C 28.6°F-1.9°C 98% Calm Calm -- 28.95 in980.4 mb - 0.00 in0.0 mm 0.00 in0.0 mm
11:00 AM 30.6°F-0.8°C 30.1°F-1.1°C 98% Calm Calm -- 28.93 in979.7 mb - 0.00 in0.0 mm 0.00 in0.0 mm
12:00 PM 33.1°F0.6°C 32.9°F0.5°C 99% Calm Calm -- 28.89 in978.3 mb - 0.00 in0.0 mm 0.00 in0.0 mm
01:00 PM 32.9°F0.5°C 31.6°F-0.2°C 95% Calm Calm -- 28.84 in976.6 mb - 0.00 in0.0 mm 0.00 in0.0 mm
02:00 PM 26.2°F-3.2°C 25.7°F-3.5°C 98% Calm Calm -- 28.81 in975.6 mb - 0.00 in0.0 mm 0.00 in0.0 mm
03:00 PM 22.8°F-5.1°C 22.6°F-5.2°C 99% Calm Calm -- 28.81 in975.6 mb - 0.00 in0.0 mm 0.00 in0.0 mm
04:00 PM 20.7°F-6.3°C 20.5°F-6.4°C 99% Calm Calm -- 28.81 in975.6 mb - 0.00 in0.0 mm 0.00 in0.0 mm
05:00 PM 19.6°F-6.9°C 19.1°F-7.2°C 98% Calm Calm -- 28.81 in975.6 mb - 0.00 in0.0 mm 0.00 in0.0 mm
06:00 PM 18.3°F-7.6°C 17.1°F-8.3°C 95% Calm Calm -- 28.82 in976.0 mb - 0.00 in0.0 mm 0.00 in0.0 mm
07:00 PM 17.8°F-7.9°C 17.6°F-8.0°C 99% Calm Calm -- 28.82 in976.0 mb - 0.00 in0.0 mm 0.00 in0.0 mm
08:00 PM 17.1°F-8.3°C 16.9°F-8.4°C 99% Calm Calm -- 28.82 in976.0 mb - 0.00 in0.0 mm 0.00 in0.0 mm
09:00 PM 16.9°F-8.4°C 16.4°F-8.7°C 98% Calm Calm -- 28.83 in976.3 mb - 0.00 in0.0 mm 0.00 in0.0 mm
10:00 PM 16.9°F-8.4°C 16.7°F-8.5°C 99% Calm Calm -- 28.84 in976.6 mb - 0.00 in0.0 mm 0.00 in0.0 mm
11:00 PM 16.9°F-8.4°C 16.7°F-8.5°C 99% Calm Calm -- 28.85 in977.0 mb - 0.00 in0.0 mm 0.00 in0.0 mm